Terminal Aerodrome Forecast
Issued by NWS

Home | Current Version | Previous Version | Text Only | Print | Product List | Glossary On
Versions: 1 2 3 4 5 6 7 8 9 10 11 12 13 14 15 16 17 18 19 20 21 22 23
000
FTUS43 KSGF 170700 AAA
TAFJLN
TAF AMD
KJLN 170705Z 1707/1806 14006KT P6SM SKC
     FM170900 17006KT 5SM BR SCT007 BKN010 OVC015
      TEMPO 1710/1714 3SM TSRA SCT025 BKN040CB
     FM171400 20008KT P6SM VCTS BKN040CB BKN050
     FM171800 21008KT P6SM VCSH SCT040 BKN060
      TEMPO 1718/1722 4SM -TSRA BKN040CB
     FM172200 15005KT P6SM BKN100=

USA.gov is the U.S. government's official web portal to all federal, state and local government web resources and services.